Time;durP1;ratioP1;P1;durP2;ratioP2;P2;SDS_P1;SDS_P2;PMS_P1;PMS_P2;Temp;Humidity;BMP_temperature;BMP_pressure;BME280_temperature;BME280_humidity;BME280_pressure;Samples;Min_cycle;Max_cycle;Signal;HPM_P1;HPM_P2
2022/03/29 00:00:03;;;;;;;18.83;10.80;;;8.40;50.90;;;;;;4978650;28;20553;-67
2022/03/29 00:02:29;;;;;;;17.13;10.32;;;8.40;51.00;;;;;;4977930;28;20037;-67
2022/03/29 00:04:55;;;;;;;18.50;10.80;;;8.40;51.00;;;;;;4977252;28;20030;-65
2022/03/29 00:07:20;;;;;;;20.20;10.60;;;8.30;51.10;;;;;;4977531;28;20133;-67
2022/03/29 00:09:46;;;;;;;16.40;10.35;;;8.30;51.30;;;;;;4978089;28;20038;-66
2022/03/29 00:12:11;;;;;;;15.50;9.63;;;8.20;51.30;;;;;;4975650;28;20085;-65
2022/03/29 00:14:37;;;;;;;16.73;10.52;;;8.20;51.40;;;;;;4978265;28;20564;-69
2022/03/29 00:17:04;;;;;;;17.77;10.40;;;8.20;51.40;;;;;;4983983;28;20066;-66
2022/03/29 00:19:29;;;;;;;19.75;11.10;;;8.20;51.50;;;;;;4980327;28;20465;-66
2022/03/29 00:21:55;;;;;;;18.55;11.05;;;8.10;51.50;;;;;;4989037;28;20254;-69
2022/03/29 00:24:21;;;;;;;16.73;11.05;;;8.10;51.70;;;;;;4984183;28;20038;-68
2022/03/29 00:26:47;;;;;;;16.80;10.88;;;8.10;51.80;;;;;;4981846;28;20034;-68
2022/03/29 00:29:12;;;;;;;22.45;11.68;;;8.00;51.80;;;;;;4983303;28;20038;-67
2022/03/29 00:31:38;;;;;;;18.23;10.70;;;8.00;51.80;;;;;;4983032;28;20030;-67
2022/03/29 00:34:03;;;;;;;22.35;11.40;;;8.00;51.90;;;;;;4983675;28;20034;-69
2022/03/29 00:36:29;;;;;;;22.67;11.18;;;7.90;52.00;;;;;;4981485;28;20039;-66
2022/03/29 00:38:55;;;;;;;22.25;11.32;;;7.90;52.10;;;;;;4981447;28;20429;-66
2022/03/29 00:41:21;;;;;;;25.58;11.68;;;7.80;52.10;;;;;;4981328;28;20690;-67
2022/03/29 00:43:47;;;;;;;19.63;11.27;;;7.80;52.30;;;;;;4982882;28;20572;-66
2022/03/29 00:46:12;;;;;;;20.02;11.43;;;7.80;52.20;;;;;;4980935;28;20043;-67
2022/03/29 00:48:38;;;;;;;19.98;11.57;;;7.80;52.30;;;;;;4984071;28;20069;-68
2022/03/29 00:51:04;;;;;;;20.10;11.32;;;7.80;52.50;;;;;;4982685;28;20559;-66
2022/03/29 00:53:31;;;;;;;19.05;11.32;;;7.80;52.70;;;;;;4982921;28;20034;-68
2022/03/29 00:55:59;;;;;;;23.33;11.30;;;7.70;52.80;;;;;;4983003;28;20561;-68
2022/03/29 00:58:26;;;;;;;18.92;11.10;;;7.70;52.80;;;;;;4981807;28;20042;-67
2022/03/29 01:00:54;;;;;;;18.50;11.20;;;7.70;52.70;;;;;;4984467;28;20026;-67
2022/03/29 01:03:20;;;;;;;18.50;10.10;;;7.70;52.90;;;;;;4969314;28;20037;-67
2022/03/29 01:05:46;;;;;;;19.98;11.20;;;7.80;52.80;;;;;;4975772;28;20118;-66
2022/03/29 01:08:12;;;;;;;17.58;11.35;;;7.70;52.90;;;;;;4973952;28;20113;-67
2022/03/29 01:10:38;;;;;;;19.35;11.25;;;7.80;53.10;;;;;;4978846;28;20113;-64
2022/03/29 01:13:06;;;;;;;17.95;10.85;;;7.70;53.20;;;;;;4982767;28;20038;-67
2022/03/29 01:15:35;;;;;;;19.63;10.88;;;7.70;53.20;;;;;;4973039;28;20035;-67
2022/03/29 01:18:01;;;;;;;25.15;10.70;;;7.70;53.30;;;;;;4964572;28;20059;-68
2022/03/29 01:20:28;;;;;;;19.58;11.32;;;7.60;53.20;;;;;;4979748;28;20108;-67
2022/03/29 01:22:55;;;;;;;16.60;10.23;;;7.60;53.30;;;;;;4978617;28;20031;-67
2022/03/29 01:25:33;;;;;;;20.92;10.70;;;7.60;53.30;;;;;;4968572;28;20446;-70
2022/03/29 01:28:01;;;;;;;16.70;10.10;;;7.60;53.80;;;;;;4968437;28;20417;-66
2022/03/29 01:30:26;;;;;;;18.73;10.60;;;7.60;53.10;;;;;;4965028;28;20147;-66
2022/03/29 01:32:53;;;;;;;18.15;10.05;;;7.50;53.20;;;;;;4986139;28;20568;-66
2022/03/29 01:35:22;;;;;;;18.33;10.45;;;7.50;53.40;;;;;;4973206;28;20043;-66
2022/03/29 01:37:48;;;;;;;19.15;10.57;;;7.50;53.80;;;;;;4960123;28;20118;-69
2022/03/29 01:40:16;;;;;;;18.17;11.38;;;7.50;53.80;;;;;;4976383;28;20057;-66
2022/03/29 01:42:56;;;;;;;20.40;11.35;;;7.50;54.00;;;;;;4977412;28;20089;-67
2022/03/29 01:45:24;;;;;;;17.52;10.55;;;7.50;54.40;;;;;;4960410;28;20039;-67
2022/03/29 01:47:50;;;;;;;15.93;10.15;;;7.50;53.90;;;;;;4972225;28;20066;-67
2022/03/29 01:50:16;;;;;;;16.65;9.85;;;7.40;53.90;;;;;;4978459;28;20077;-68
2022/03/29 01:52:45;;;;;;;15.90;10.18;;;7.40;54.00;;;;;;4958742;28;20035;-67
2022/03/29 01:55:12;;;;;;;17.00;9.63;;;7.40;54.10;;;;;;4966726;28;20045;-67
2022/03/29 01:57:38;;;;;;;19.45;9.95;;;7.40;54.00;;;;;;4977603;28;20034;-68
2022/03/29 02:02:50;;;;;;;17.13;9.25;;;7.30;54.10;;;;;;4975849;28;20162;-68
2022/03/29 02:05:17;;;;;;;17.55;9.80;;;7.20;54.00;;;;;;4960055;28;20518;-68
2022/03/29 02:07:43;;;;;;;18.17;9.93;;;7.30;54.10;;;;;;4969365;28;20111;-67
2022/03/29 02:10:09;;;;;;;15.70;9.80;;;7.20;54.00;;;;;;4977751;28;20110;-68
2022/03/29 02:12:35;;;;;;;16.95;10.02;;;7.20;54.10;;;;;;4979917;28;20038;-67
2022/03/29 02:15:01;;;;;;;19.98;10.13;;;7.20;54.10;;;;;;4973935;28;20031;-68
2022/03/29 02:17:26;;;;;;;19.60;11.07;;;7.20;54.10;;;;;;4960497;28;20050;-68
2022/03/29 02:19:52;;;;;;;25.20;11.90;;;7.30;54.20;;;;;;4972058;28;20030;-67
2022/03/29 02:22:17;;;;;;;22.50;12.70;;;7.30;54.30;;;;;;4979284;28;20414;-66
2022/03/29 02:24:43;;;;;;;25.90;12.25;;;7.30;54.40;;;;;;4959871;28;20177;-67
2022/03/29 02:27:09;;;;;;;24.05;12.25;;;7.30;54.20;;;;;;4955937;28;20058;-66
2022/03/29 02:29:35;;;;;;;20.63;12.02;;;7.30;54.10;;;;;;4959938;28;20035;-67
2022/03/29 02:32:01;;;;;;;19.45;12.13;;;7.30;54.20;;;;;;4971411;28;20031;-68
2022/03/29 02:34:26;;;;;;;20.60;11.20;;;7.30;54.30;;;;;;4978305;28;20061;-66
2022/03/29 02:36:52;;;;;;;19.00;10.93;;;7.30;54.10;;;;;;4958334;28;21897;-66
2022/03/29 02:39:18;;;;;;;19.85;11.43;;;7.30;54.10;;;;;;4967381;28;20433;-68
2022/03/29 02:41:43;;;;;;;20.95;11.30;;;7.30;54.20;;;;;;4976727;28;20075;-68
2022/03/29 02:44:09;;;;;;;22.33;10.80;;;7.30;54.30;;;;;;4964518;28;20031;-67
2022/03/29 02:46:35;;;;;;;20.05;11.40;;;7.30;54.40;;;;;;4972981;28;20039;-68
2022/03/29 02:49:01;;;;;;;18.85;10.68;;;7.20;54.50;;;;;;4961090;28;20380;-67
2022/03/29 02:51:27;;;;;;;19.50;10.77;;;7.20;54.60;;;;;;4967142;28;20524;-67
2022/03/29 02:53:53;;;;;;;19.98;10.27;;;7.20;54.70;;;;;;4977500;28;20035;-66
2022/03/29 02:56:18;;;;;;;16.65;10.90;;;7.20;54.70;;;;;;4963479;28;20035;-70
2022/03/29 02:58:44;;;;;;;21.85;11.48;;;7.10;54.80;;;;;;4960231;28;20047;-68
2022/03/29 03:01:09;;;;;;;22.60;10.85;;;7.00;54.90;;;;;;4977772;28;20062;-68
2022/03/29 03:03:35;;;;;;;22.05;11.48;;;7.00;55.00;;;;;;4968398;28;20147;-67
2022/03/29 03:06:01;;;;;;;18.25;10.50;;;6.90;55.00;;;;;;4959391;28;20350;-67
2022/03/29 03:08:27;;;;;;;20.05;11.60;;;6.90;55.00;;;;;;4975208;28;20038;-66
2022/03/29 03:10:53;;;;;;;18.38;10.60;;;6.80;55.00;;;;;;4975550;28;20125;-67
2022/03/29 03:13:18;;;;;;;23.27;10.43;;;6.80;55.20;;;;;;4977508;28;20667;-67
2022/03/29 03:15:44;;;;;;;20.80;10.70;;;6.80;55.30;;;;;;4965773;28;20035;-69
2022/03/29 03:18:09;;;;;;;18.40;10.60;;;6.80;55.40;;;;;;4977749;28;20406;-67
2022/03/29 03:20:35;;;;;;;17.15;9.77;;;6.70;55.40;;;;;;4961630;28;20058;-66
2022/03/29 03:23:02;;;;;;;19.88;10.90;;;6.70;55.50;;;;;;4964014;28;20038;-67
2022/03/29 03:25:27;;;;;;;19.35;10.38;;;6.70;55.40;;;;;;4976898;28;20038;-66
2022/03/29 03:27:53;;;;;;;16.75;10.35;;;6.70;55.40;;;;;;4965766;28;20038;-66
2022/03/29 03:30:19;;;;;;;19.05;10.93;;;6.70;55.50;;;;;;4959004;28;20039;-67
2022/03/29 03:32:46;;;;;;;19.15;10.77;;;6.70;55.50;;;;;;4975627;28;20057;-67
2022/03/29 03:35:13;;;;;;;20.15;11.05;;;6.70;55.60;;;;;;4970686;28;20062;-67
2022/03/29 03:37:39;;;;;;;23.42;11.68;;;6.60;55.60;;;;;;4960158;28;20045;-67
2022/03/29 03:40:08;;;;;;;21.33;10.80;;;6.60;55.60;;;;;;4970158;28;20034;-66
2022/03/29 03:42:35;;;;;;;19.88;10.93;;;6.60;55.70;;;;;;4959533;28;20410;-67
2022/03/29 03:45:02;;;;;;;19.33;11.52;;;6.50;55.60;;;;;;4976814;28;20034;-66
2022/03/29 03:47:28;;;;;;;21.45;11.13;;;6.50;55.60;;;;;;4967288;28;20043;-66
2022/03/29 03:49:54;;;;;;;21.50;11.23;;;6.50;55.70;;;;;;4959009;28;20041;-66
2022/03/29 03:52:19;;;;;;;22.17;12.02;;;6.50;56.00;;;;;;4972245;28;20034;-67
2022/03/29 03:54:46;;;;;;;21.10;11.82;;;6.50;56.00;;;;;;4976375;28;20049;-66
2022/03/29 03:57:11;;;;;;;21.95;11.38;;;6.50;56.00;;;;;;4972013;28;20035;-67
2022/03/29 03:59:37;;;;;;;21.52;10.70;;;6.50;55.90;;;;;;4969228;28;20088;-67
2022/03/29 04:02:03;;;;;;;20.42;11.75;;;6.40;55.90;;;;;;4977746;28;20308;-66
2022/03/29 04:04:29;;;;;;;18.75;11.07;;;6.40;56.10;;;;;;4960028;28;20026;-67
2022/03/29 04:06:55;;;;;;;20.40;11.90;;;6.40;56.10;;;;;;4961420;28;20746;-66
2022/03/29 04:09:21;;;;;;;20.42;10.88;;;6.30;56.00;;;;;;4975863;28;20038;-66
2022/03/29 04:11:48;;;;;;;20.50;11.52;;;6.30;56.10;;;;;;4977618;28;20046;-67
2022/03/29 04:14:13;;;;;;;21.88;12.13;;;6.30;56.20;;;;;;4977763;28;20035;-67
2022/03/29 04:16:39;;;;;;;27.08;13.10;;;6.30;56.30;;;;;;4976314;28;20097;-66
2022/03/29 04:19:05;;;;;;;21.40;11.52;;;6.30;56.40;;;;;;4976937;28;20585;-66
2022/03/29 04:21:31;;;;;;;23.60;11.65;;;6.30;56.40;;;;;;4981462;28;20030;-66
2022/03/29 04:23:57;;;;;;;24.13;12.15;;;6.20;56.40;;;;;;4976043;28;20030;-67
2022/03/29 04:26:23;;;;;;;29.58;12.75;;;6.20;56.40;;;;;;4982571;28;20031;-66
2022/03/29 04:28:49;;;;;;;27.02;12.77;;;6.20;56.40;;;;;;4975503;28;20026;-68
2022/03/29 04:31:14;;;;;;;27.33;12.35;;;6.20;56.50;;;;;;4972714;28;20046;-67
2022/03/29 04:33:41;;;;;;;26.77;12.65;;;6.10;56.50;;;;;;4976041;28;20033;-67
2022/03/29 04:36:06;;;;;;;26.73;12.68;;;6.10;56.50;;;;;;4963974;28;20251;-66
2022/03/29 04:38:32;;;;;;;27.00;11.68;;;6.10;56.60;;;;;;4958972;28;20426;-68
2022/03/29 04:40:58;;;;;;;24.23;12.48;;;6.00;56.60;;;;;;4975392;28;20059;-66
2022/03/29 04:43:24;;;;;;;22.77;11.70;;;5.90;56.50;;;;;;4970577;28;20035;-66
2022/03/29 04:45:49;;;;;;;24.20;12.00;;;5.90;56.60;;;;;;4958987;28;20058;-65
2022/03/29 04:48:15;;;;;;;24.88;12.48;;;5.90;56.80;;;;;;4973234;28;20027;-67
2022/03/29 04:50:41;;;;;;;25.67;12.07;;;5.90;56.90;;;;;;4975624;28;20062;-68
2022/03/29 04:53:07;;;;;;;23.15;12.15;;;5.90;57.00;;;;;;4958712;28;20037;-68
2022/03/29 04:55:34;;;;;;;24.60;12.45;;;5.90;57.20;;;;;;4967789;28;20042;-66
2022/03/29 04:58:00;;;;;;;25.75;11.05;;;5.80;57.20;;;;;;4977930;28;20034;-66
2022/03/29 05:00:27;;;;;;;21.98;10.98;;;5.80;57.20;;;;;;4961280;28;20031;-66
2022/03/29 05:02:52;;;;;;;24.08;11.35;;;5.80;57.20;;;;;;4962115;28;20058;-68
2022/03/29 05:05:19;;;;;;;24.77;11.65;;;5.80;57.20;;;;;;4977447;28;20112;-66
2022/03/29 05:07:46;;;;;;;22.85;12.15;;;5.80;57.40;;;;;;4969797;28;20443;-66
2022/03/29 05:10:13;;;;;;;23.55;12.73;;;5.80;57.50;;;;;;4963114;28;20122;-66
2022/03/29 05:12:47;;;;;;;25.00;12.50;;;5.80;57.50;;;;;;4961784;28;20661;-67
2022/03/29 05:15:16;;;;;;;28.00;13.52;;;5.80;58.10;;;;;;4968124;28;20039;-67
2022/03/29 05:17:42;;;;;;;32.53;15.30;;;5.80;57.80;;;;;;4979426;28;20057;-67
2022/03/29 05:20:08;;;;;;;33.40;13.90;;;5.80;58.10;;;;;;4965564;28;20505;-67
2022/03/29 05:22:48;;;;;;;30.75;14.57;;;5.70;57.80;;;;;;4962841;28;20169;-65
2022/03/29 05:25:15;;;;;;;26.60;13.50;;;5.70;58.30;;;;;;4978593;28;20125;-66
2022/03/29 05:27:41;;;;;;;34.63;14.27;;;5.70;57.80;;;;;;4974676;28;20047;-66
2022/03/29 05:30:07;;;;;;;48.05;14.23;;;5.70;57.80;;;;;;4960858;28;20397;-66
2022/03/29 05:32:33;;;;;;;38.58;13.02;;;5.80;58.10;;;;;;4977137;28;20596;-66
2022/03/29 05:34:58;;;;;;;44.80;13.48;;;5.80;58.20;;;;;;4973465;28;20039;-70
2022/03/29 05:37:24;;;;;;;36.83;13.50;;;5.80;58.40;;;;;;4971693;28;20546;-66
2022/03/29 05:39:50;;;;;;;37.05;13.43;;;5.80;58.50;;;;;;4970490;28;20034;-69
2022/03/29 05:42:16;;;;;;;33.53;12.40;;;5.80;58.60;;;;;;4977323;28;20143;-66
2022/03/29 05:44:43;;;;;;;34.53;13.23;;;5.80;58.50;;;;;;4977272;28;20070;-67
2022/03/29 05:49:53;;;;;;;38.08;13.10;;;5.90;58.90;;;;;;4957348;28;20633;-65
2022/03/29 05:52:21;;;;;;;26.85;12.85;;;6.00;58.90;;;;;;4975030;28;20042;-67
2022/03/29 05:54:47;;;;;;;34.90;14.10;;;6.00;59.20;;;;;;4976476;28;20126;-66
2022/03/29 05:57:17;;;;;;;30.23;12.98;;;6.10;59.30;;;;;;4958409;28;20577;-66
2022/03/29 05:59:46;;;;;;;34.03;14.30;;;6.20;59.50;;;;;;4970972;28;20038;-67
2022/03/29 06:02:12;;;;;;;42.03;14.43;;;6.20;59.40;;;;;;4979909;28;20041;-66
2022/03/29 06:04:39;;;;;;;37.10;13.50;;;6.30;59.70;;;;;;4958007;28;20051;-66
2022/03/29 06:07:05;;;;;;;40.58;13.30;;;6.40;59.80;;;;;;4965810;28;20042;-66
2022/03/29 06:09:35;;;;;;;36.65;13.48;;;6.40;59.60;;;;;;4978939;28;20038;-67
2022/03/29 06:12:02;;;;;;;38.17;12.15;;;6.50;59.70;;;;;;4976247;28;20061;-68
2022/03/29 06:14:27;;;;;;;40.47;14.65;;;6.60;59.70;;;;;;4978330;28;20037;-66
2022/03/29 06:16:55;;;;;;;35.45;14.05;;;6.70;59.80;;;;;;4956859;28;20046;-66
2022/03/29 06:19:21;;;;;;;36.13;13.95;;;6.80;60.00;;;;;;4966152;28;20209;-66
2022/03/29 06:21:46;;;;;;;34.13;13.75;;;6.90;60.20;;;;;;4977382;28;20358;-67
2022/03/29 06:24:12;;;;;;;42.85;14.18;;;6.90;60.10;;;;;;4965740;28;20131;-66
2022/03/29 06:26:41;;;;;;;34.47;13.73;;;7.10;60.00;;;;;;4958155;28;20086;-66
2022/03/29 06:29:08;;;;;;;31.88;13.43;;;7.10;59.80;;;;;;4980215;28;20062;-66
2022/03/29 06:31:34;;;;;;;35.47;14.50;;;7.30;59.70;;;;;;4967493;28;20050;-67
2022/03/29 06:34:00;;;;;;;34.25;14.98;;;7.40;59.90;;;;;;4957882;28;20027;-67
2022/03/29 06:36:26;;;;;;;31.75;13.90;;;7.50;60.10;;;;;;4973980;28;20041;-65
2022/03/29 06:38:53;;;;;;;29.75;14.45;;;7.60;59.70;;;;;;4975551;28;20406;-66
2022/03/29 06:41:19;;;;;;;30.40;15.27;;;7.70;59.50;;;;;;4958673;28;20038;-67
2022/03/29 06:43:45;;;;;;;30.77;14.02;;;7.80;59.30;;;;;;4984765;28;20046;-67
2022/03/29 06:46:11;;;;;;;26.40;14.02;;;7.90;59.30;;;;;;4976911;28;20042;-66
2022/03/29 06:48:37;;;;;;;23.90;12.38;;;8.00;59.20;;;;;;4961044;28;20039;-67
2022/03/29 06:51:03;;;;;;;22.92;12.20;;;8.20;59.10;;;;;;4959793;28;20121;-66
2022/03/29 06:53:29;;;;;;;21.83;11.95;;;8.30;58.80;;;;;;4981124;28;20097;-66
2022/03/29 06:55:55;;;;;;;24.85;11.73;;;8.50;58.60;;;;;;4971803;28;20023;-67
2022/03/29 06:58:21;;;;;;;22.17;11.80;;;8.60;58.50;;;;;;4976910;28;20553;-66
2022/03/29 07:00:47;;;;;;;21.67;11.35;;;8.80;58.20;;;;;;4960072;28;20035;-68
2022/03/29 07:03:13;;;;;;;33.80;11.52;;;8.90;58.00;;;;;;4965331;28;20027;-68
2022/03/29 07:05:42;;;;;;;19.95;11.32;;;9.10;57.60;;;;;;4976686;28;20034;-66
2022/03/29 07:08:12;;;;;;;22.88;11.45;;;9.30;57.30;;;;;;4963100;28;20405;-66
2022/03/29 07:13:23;;;;;;;18.73;10.82;;;9.60;56.70;;;;;;4957082;28;20046;-67
2022/03/29 07:15:51;;;;;;;22.45;10.98;;;9.80;56.40;;;;;;4970007;28;20035;-68
2022/03/29 07:18:18;;;;;;;18.88;10.50;;;9.90;55.90;;;;;;4976410;28;20075;-67
2022/03/29 07:20:43;;;;;;;20.35;11.55;;;10.10;55.70;;;;;;4959982;28;20031;-66
2022/03/29 07:23:09;;;;;;;20.95;11.70;;;10.20;55.50;;;;;;4961525;28;20080;-66
2022/03/29 07:25:36;;;;;;;19.38;10.98;;;10.40;55.30;;;;;;4975491;28;20088;-68
2022/03/29 07:28:02;;;;;;;18.65;10.93;;;10.50;55.00;;;;;;4963587;28;20039;-66
2022/03/29 07:30:29;;;;;;;21.95;11.05;;;10.60;54.90;;;;;;4958106;28;20039;-66
2022/03/29 07:32:57;;;;;;;21.35;11.65;;;10.70;54.70;;;;;;4975843;28;20427;-66
2022/03/29 07:35:25;;;;;;;19.65;11.20;;;10.80;54.70;;;;;;4979074;28;20586;-67
2022/03/29 07:37:51;;;;;;;22.05;11.13;;;11.00;54.40;;;;;;4978244;28;20042;-67
2022/03/29 07:40:19;;;;;;;18.23;10.98;;;11.10;54.00;;;;;;4963642;28;20066;-66
2022/03/29 07:42:45;;;;;;;24.58;10.73;;;11.20;53.70;;;;;;4961805;28;20073;-67
2022/03/29 07:45:12;;;;;;;21.58;10.68;;;11.30;53.50;;;;;;4978159;28;20083;-68
2022/03/29 07:47:38;;;;;;;18.60;10.38;;;11.40;53.40;;;;;;4969563;28;20047;-67
2022/03/29 07:50:07;;;;;;;22.48;10.80;;;11.50;53.00;;;;;;4959884;28;20035;-66
2022/03/29 07:52:34;;;;;;;21.77;11.05;;;11.60;52.90;;;;;;4975600;28;20150;-66
2022/03/29 07:55:01;;;;;;;20.90;11.45;;;11.70;52.80;;;;;;4972624;28;20035;-66
2022/03/29 07:57:26;;;;;;;20.27;10.98;;;11.80;52.50;;;;;;4959831;28;20035;-67
2022/03/29 07:59:52;;;;;;;19.50;10.75;;;11.90;52.50;;;;;;4970768;28;20039;-67
2022/03/29 08:02:17;;;;;;;20.77;11.50;;;12.00;52.30;;;;;;4975413;28;20042;-68
2022/03/29 08:04:43;;;;;;;20.42;11.13;;;12.10;52.30;;;;;;4960732;28;20395;-66
2022/03/29 08:07:09;;;;;;;21.17;10.98;;;12.20;51.90;;;;;;4965183;28;20583;-66
2022/03/29 08:09:34;;;;;;;22.33;10.85;;;12.30;51.90;;;;;;4978446;28;20078;-66
2022/03/29 08:12:00;;;;;;;21.77;10.57;;;12.30;51.70;;;;;;4965207;28;20506;-67
2022/03/29 08:14:26;;;;;;;19.70;10.43;;;12.40;51.50;;;;;;4974867;28;20031;-68
2022/03/29 08:16:55;;;;;;;22.42;10.68;;;12.50;51.50;;;;;;4959800;28;20638;-68
2022/03/29 08:19:21;;;;;;;22.80;11.38;;;12.60;51.20;;;;;;4967666;28;20037;-66
2022/03/29 08:21:50;;;;;;;22.00;11.27;;;12.70;51.00;;;;;;4979075;28;20050;-66
2022/03/29 08:24:23;;;;;;;18.50;10.52;;;12.80;50.90;;;;;;4961189;28;20452;-67
2022/03/29 08:26:54;;;;;;;16.50;11.13;;;12.90;50.60;;;;;;4976354;28;20034;-68
2022/03/29 08:29:23;;;;;;;24.50;13.65;;;13.00;50.60;;;;;;4977160;28;20556;-66
2022/03/29 08:31:49;;;;;;;23.85;12.82;;;13.10;50.30;;;;;;4978483;28;20569;-67
2022/03/29 08:34:17;;;;;;;23.90;13.35;;;13.10;50.10;;;;;;4979321;28;20062;-66
2022/03/29 08:36:43;;;;;;;28.20;13.60;;;13.20;50.20;;;;;;4977146;28;20170;-66
2022/03/29 08:39:10;;;;;;;19.77;12.80;;;13.30;50.00;;;;;;4976279;28;20729;-66
2022/03/29 08:41:38;;;;;;;22.75;12.60;;;13.30;49.90;;;;;;4978932;28;20031;-67
2022/03/29 08:44:04;;;;;;;22.20;11.65;;;13.40;49.90;;;;;;4981848;28;20031;-66
2022/03/29 08:46:36;;;;;;;16.88;10.77;;;13.50;50.00;;;;;;4980011;28;20457;-66
2022/03/29 08:49:03;;;;;;;21.88;11.07;;;13.60;49.80;;;;;;4982386;28;20031;-67
2022/03/29 08:51:29;;;;;;;22.13;10.98;;;13.70;49.80;;;;;;4983129;28;20027;-66
2022/03/29 08:53:55;;;;;;;21.27;11.27;;;13.70;49.60;;;;;;4979792;28;20030;-67
2022/03/29 08:56:20;;;;;;;19.35;10.63;;;13.90;49.60;;;;;;4980238;28;20047;-67
2022/03/29 08:58:46;;;;;;;18.05;10.70;;;13.90;49.40;;;;;;4981374;28;20054;-66
2022/03/29 09:01:12;;;;;;;21.05;11.70;;;14.10;49.40;;;;;;4980737;28;20050;-67
2022/03/29 09:03:37;;;;;;;20.83;10.77;;;14.20;49.30;;;;;;4981436;28;20587;-68
2022/03/29 09:06:08;;;;;;;18.77;11.10;;;14.20;49.00;;;;;;4980420;28;20138;-67
2022/03/29 09:08:43;;;;;;;21.65;11.20;;;14.40;48.90;;;;;;4964316;28;20134;-67
2022/03/29 09:11:08;;;;;;;23.35;11.80;;;14.40;48.70;;;;;;4963214;28;20026;-68
2022/03/29 09:13:34;;;;;;;22.80;12.55;;;14.50;48.60;;;;;;4972763;28;20399;-66
2022/03/29 09:16:01;;;;;;;30.80;15.85;;;14.60;48.60;;;;;;4959526;28;20089;-67
2022/03/29 09:18:28;;;;;;;35.70;18.52;;;14.70;48.50;;;;;;4977793;28;20166;-67
2022/03/29 09:21:13;;;;;;;36.15;16.45;;;14.80;48.30;;;;;;4977895;28;20078;-67
2022/03/29 09:23:40;;;;;;;18.50;11.43;;;14.90;48.00;;;;;;4962670;28;20031;-66
2022/03/29 09:26:06;;;;;;;23.02;10.88;;;15.00;48.00;;;;;;4974569;28;20125;-68
2022/03/29 09:28:37;;;;;;;15.00;9.63;;;15.10;47.90;;;;;;4979695;28;20061;-67
2022/03/29 09:31:27;;;;;;;15.13;9.80;;;15.20;47.40;;;;;;4962754;28;20034;-67
2022/03/29 09:34:14;;;;;;;17.75;10.63;;;15.30;46.80;;;;;;4974142;28;20043;-66
2022/03/29 09:36:45;;;;;;;16.25;9.90;;;15.40;46.50;;;;;;4973281;28;20034;-67
2022/03/29 09:39:42;;;;;;;22.98;10.98;;;15.50;46.90;;;;;;4954988;28;20094;-67
2022/03/29 09:42:17;;;;;;;16.25;9.82;;;15.60;46.30;;;;;;4971179;28;20073;-66
2022/03/29 09:44:45;;;;;;;;;;;15.70;46.00;;;;;;4977896;28;20129;-67
2022/03/29 09:47:14;;;;;;;16.92;9.80;;;15.90;46.40;;;;;;4955759;28;19980;-68
2022/03/29 09:49:55;;;;;;;17.42;9.95;;;15.90;46.10;;;;;;4969883;28;20034;-68
2022/03/29 09:52:23;;;;;;;17.48;9.60;;;16.10;45.40;;;;;;4976341;28;20034;-68
2022/03/29 09:55:09;;;;;;;14.52;9.45;;;16.10;45.60;;;;;;4975819;28;20068;-67
2022/03/29 09:57:41;;;;;;;14.98;10.25;;;16.20;43.90;;;;;;4974547;28;20499;-68
2022/03/29 10:00:10;;;;;;;15.68;9.10;;;16.40;44.30;;;;;;4981132;28;20030;-68
2022/03/29 10:02:38;;;;;;;13.43;8.93;;;16.50;44.50;;;;;;4980344;28;20530;-67
2022/03/29 10:05:04;;;;;;;15.23;9.15;;;16.60;44.20;;;;;;4975425;28;20121;-67
2022/03/29 10:07:38;;;;;;;14.65;9.95;;;16.70;43.60;;;;;;4959568;28;20043;-67
2022/03/29 10:10:07;;;;;;;15.65;9.57;;;16.80;43.10;;;;;;4970320;28;20058;-67
2022/03/29 10:12:34;;;;;;;15.63;8.57;;;16.90;43.10;;;;;;4974305;28;20038;-70
2022/03/29 10:15:00;;;;;;;14.32;9.35;;;17.00;43.20;;;;;;4958606;28;20073;-67
2022/03/29 10:17:27;;;;;;;17.20;8.30;;;17.10;43.00;;;;;;4969687;28;20045;-67
2022/03/29 10:19:56;;;;;;;15.23;8.95;;;17.20;42.80;;;;;;4980783;28;20533;-67
2022/03/29 10:22:21;;;;;;;11.40;8.38;;;17.30;41.30;;;;;;4965904;28;20503;-66
2022/03/29 10:24:47;;;;;;;15.05;8.43;;;17.40;41.40;;;;;;4964702;28;20042;-67
2022/03/29 10:27:16;;;;;;;11.70;8.02;;;17.50;40.90;;;;;;4977481;28;20575;-66
2022/03/29 10:29:42;;;;;;;15.02;8.93;;;17.50;41.00;;;;;;4970808;28;20046;-67
2022/03/29 10:32:10;;;;;;;17.92;9.73;;;17.60;41.20;;;;;;4961621;28;20043;-67
2022/03/29 10:34:39;;;;;;;12.48;9.20;;;17.70;41.00;;;;;;4978935;28;20054;-66
2022/03/29 10:37:16;;;;;;;14.18;8.65;;;17.80;40.90;;;;;;4975077;28;20061;-66
2022/03/29 10:39:54;;;;;;;13.40;8.48;;;17.90;40.40;;;;;;4960979;28;20498;-67
2022/03/29 10:42:31;;;;;;;13.35;8.23;;;18.00;40.40;;;;;;4975821;28;20038;-67
2022/03/29 10:45:06;;;;;;;13.25;8.32;;;18.10;40.10;;;;;;4977434;28;20031;-67
2022/03/29 10:47:33;;;;;;;13.00;8.45;;;18.10;39.90;;;;;;4980514;28;20042;-68
2022/03/29 10:50:00;;;;;;;14.05;8.82;;;18.20;39.50;;;;;;4979839;28;20034;-67
2022/03/29 10:52:25;;;;;;;13.18;9.00;;;18.20;39.30;;;;;;4979598;28;20536;-66
2022/03/29 10:55:12;;;;;;;11.60;7.95;;;18.30;39.40;;;;;;4976561;28;20038;-67
2022/03/29 10:57:37;;;;;;;13.30;8.50;;;18.30;39.40;;;;;;4980464;28;20117;-68
2022/03/29 11:00:12;;;;;;;12.57;8.85;;;18.40;38.90;;;;;;4977398;28;20062;-67
2022/03/29 11:02:59;;;;;;;12.88;8.57;;;18.50;38.00;;;;;;4980799;28;20036;-67
2022/03/29 11:05:24;;;;;;;15.50;7.78;;;18.50;38.00;;;;;;4977280;28;20042;-66
2022/03/29 11:07:53;;;;;;;16.45;8.35;;;18.60;38.20;;;;;;4977654;28;20042;-66
2022/03/29 11:10:19;;;;;;;20.33;8.57;;;18.60;38.10;;;;;;4978883;28;20470;-66
2022/03/29 11:12:45;;;;;;;12.05;8.05;;;18.70;37.90;;;;;;4974972;28;20134;-67
2022/03/29 11:15:36;;;;;;;12.18;7.93;;;18.80;38.10;;;;;;4976904;28;20100;-70
2022/03/29 11:18:20;;;;;;;12.20;8.18;;;18.80;37.60;;;;;;4979410;28;20034;-67
2022/03/29 11:20:54;;;;;;;11.02;7.68;;;18.90;37.50;;;;;;4976381;28;20046;-67
2022/03/29 11:23:31;;;;;;;13.85;8.57;;;18.90;36.80;;;;;;4958574;28;20474;-67
2022/03/29 11:25:56;;;;;;;14.48;8.00;;;19.00;36.10;;;;;;4967936;28;20026;-68
2022/03/29 11:28:22;;;;;;;12.35;7.93;;;19.10;36.90;;;;;;4979389;28;20068;-68
2022/03/29 11:30:54;;;;;;;12.07;8.07;;;19.10;36.10;;;;;;4959996;28;20038;-67
2022/03/29 11:33:33;;;;;;;14.55;9.05;;;19.10;35.70;;;;;;4971232;28;20035;-67
2022/03/29 11:35:59;;;;;;;13.73;7.93;;;19.10;35.80;;;;;;4971353;28;20038;-67
2022/03/29 11:38:25;;;;;;;11.75;7.80;;;19.20;36.50;;;;;;4978054;28;20045;-67
2022/03/29 11:40:51;;;;;;;13.40;7.97;;;19.20;36.30;;;;;;4974981;28;20034;-71
2022/03/29 11:43:22;;;;;;;12.73;7.38;;;19.20;36.30;;;;;;4979188;28;20065;-67
2022/03/29 11:45:48;;;;;;;15.93;7.97;;;19.30;35.80;;;;;;4980719;28;20532;-67
2022/03/29 11:48:20;;;;;;;11.35;7.63;;;19.30;36.10;;;;;;4975500;28;20051;-67
2022/03/29 11:50:52;;;;;;;13.65;7.72;;;19.40;35.80;;;;;;4984276;28;20536;-67
2022/03/29 11:53:23;;;;;;;12.80;7.68;;;19.40;35.90;;;;;;4979234;28;20116;-67
2022/03/29 11:56:18;;;;;;;12.80;8.00;;;19.50;36.10;;;;;;4978176;28;20038;-67
2022/03/29 11:58:54;;;;;;;10.43;7.45;;;19.50;35.00;;;;;;4979126;28;20027;-67
2022/03/29 12:01:29;;;;;;;12.55;7.40;;;19.60;34.10;;;;;;4976771;28;20413;-68
2022/03/29 12:03:56;;;;;;;12.23;6.85;;;19.50;34.00;;;;;;4978247;28;20405;-67
2022/03/29 12:06:27;;;;;;;9.20;6.65;;;19.60;34.30;;;;;;4977641;28;20037;-68
2022/03/29 12:08:52;;;;;;;12.20;7.18;;;19.50;34.40;;;;;;4976008;28;20073;-68
2022/03/29 12:11:22;;;;;;;12.38;7.10;;;19.50;34.80;;;;;;4976546;28;20046;-67
2022/03/29 12:13:58;;;;;;;13.73;6.72;;;19.60;34.60;;;;;;4977990;28;20045;-67
2022/03/29 12:16:25;;;;;;;12.13;6.57;;;19.60;34.60;;;;;;4972656;28;20441;-69
2022/03/29 12:18:51;;;;;;;14.27;6.72;;;19.60;34.70;;;;;;4977045;28;20034;-70
2022/03/29 12:21:20;;;;;;;15.38;7.15;;;19.60;34.30;;;;;;4978677;28;20413;-67
2022/03/29 12:23:48;;;;;;;12.52;6.40;;;19.70;34.20;;;;;;4978035;28;20038;-67
2022/03/29 12:26:17;;;;;;;12.85;7.05;;;19.70;34.40;;;;;;4979033;28;20034;-67
2022/03/29 12:28:45;;;;;;;12.07;6.70;;;19.80;34.70;;;;;;4978309;28;20031;-67
2022/03/29 12:31:13;;;;;;;12.23;6.80;;;19.80;34.40;;;;;;4974325;28;20038;-69
2022/03/29 12:33:40;;;;;;;9.88;5.95;;;19.80;34.10;;;;;;4975535;28;20038;-67
2022/03/29 12:36:10;;;;;;;13.68;6.82;;;19.80;34.00;;;;;;4978583;28;20475;-68
2022/03/29 12:38:51;;;;;;;9.20;6.30;;;19.90;33.40;;;;;;4974172;28;20046;-67
2022/03/29 12:41:32;;;;;;;11.88;6.18;;;19.90;33.10;;;;;;4976136;28;20057;-67
2022/03/29 12:43:58;;;;;;;12.40;6.72;;;19.90;33.50;;;;;;4978871;28;20030;-67
2022/03/29 12:46:24;;;;;;;16.98;6.95;;;20.00;34.00;;;;;;4977328;28;20421;-67